Time;durP1;ratioP1;P1;durP2;ratioP2;P2;SDS_P1;SDS_P2;PMS_P1;PMS_P2;Temp;Humidity;BMP_temperature;BMP_pressure;BME280_temperature;BME280_humidity;BME280_pressure;Samples;Min_cycle;Max_cycle;Signal;HPM_P1;HPM_P2
2021/10/29 00:00:32;;;;;;;6.57;3.93;;;;;;;8.43;100.00;96256.16;5036346;28;20198;-69
2021/10/29 00:02:59;;;;;;;7.10;3.40;;;;;;;8.39;99.60;96257.44;5036779;28;20199;-69
2021/10/29 00:05:25;;;;;;;9.03;4.07;;;;;;;8.14;100.00;96255.78;5035712;28;20219;-69
2021/10/29 00:07:52;;;;;;;7.53;3.87;;;;;;;8.28;100.00;96252.53;5035950;28;20224;-69
2021/10/29 00:10:19;;;;;;;3.43;2.17;;;;;;;8.20;100.00;96250.72;5036151;28;20209;-69
2021/10/29 00:12:46;;;;;;;12.73;2.90;;;;;;;8.09;100.00;96245.72;5039716;28;20225;-69
2021/10/29 00:15:14;;;;;;;5.83;2.83;;;;;;;8.48;100.00;96251.22;5040562;28;20213;-69
2021/10/29 00:17:41;;;;;;;5.13;2.63;;;;;;;8.28;100.00;96244.66;5039756;28;20220;-69
2021/10/29 00:20:09;;;;;;;5.97;2.67;;;;;;;8.19;100.00;96240.38;5040589;28;20208;-69
2021/10/29 00:22:36;;;;;;;6.73;3.47;;;;;;;8.25;100.00;96237.91;5040388;28;20205;-69
2021/10/29 00:25:02;;;;;;;6.87;4.13;;;;;;;8.41;100.00;96243.16;5040070;28;20200;-69
2021/10/29 00:27:29;;;;;;;4.67;2.83;;;;;;;8.27;99.75;96237.75;5039249;28;20219;-69
2021/10/29 00:29:56;;;;;;;6.80;3.93;;;;;;;8.11;100.00;96240.34;5039879;28;20205;-69
2021/10/29 00:32:24;;;;;;;7.57;4.30;;;;;;;8.30;100.00;96232.16;5039943;28;20233;-69
2021/10/29 00:34:51;;;;;;;6.40;3.07;;;;;;;8.16;100.00;96233.66;5040342;28;20197;-69
2021/10/29 00:37:18;;;;;;;5.77;3.50;;;;;;;8.31;99.55;96236.44;5039260;28;20225;-69
2021/10/29 00:39:46;;;;;;;4.10;2.80;;;;;;;8.40;100.00;96235.47;5039682;28;21097;-69
2021/10/29 00:42:12;;;;;;;3.93;2.47;;;;;;;8.14;100.00;96240.03;5040076;28;20205;-69
2021/10/29 00:44:39;;;;;;;6.50;3.43;;;;;;;7.99;100.00;96224.09;5040523;28;20209;-69
2021/10/29 00:47:06;;;;;;;4.13;2.23;;;;;;;8.04;100.00;96234.09;5038247;28;20225;-69
2021/10/29 00:49:34;;;;;;;7.33;3.43;;;;;;;8.02;100.00;96236.88;5039576;28;20213;-69
2021/10/29 00:52:01;;;;;;;8.17;3.07;;;;;;;7.98;100.00;96232.94;5040649;28;20232;-69
2021/10/29 00:54:27;;;;;;;3.60;2.93;;;;;;;8.04;100.00;96224.44;5039291;28;20206;-69
2021/10/29 00:56:54;;;;;;;10.50;4.30;;;;;;;8.05;100.00;96219.97;5035644;28;20245;-69
2021/10/29 00:59:21;;;;;;;3.93;2.03;;;;;;;7.80;100.00;96213.03;5039452;28;20669;-69
2021/10/29 01:01:48;;;;;;;2.23;2.03;;;;;;;7.81;100.00;96216.50;5039936;28;20664;-69
2021/10/29 01:04:15;;;;;;;6.07;2.60;;;;;;;7.72;100.00;96213.03;5039105;28;20806;-69
2021/10/29 01:06:45;;;;;;;3.90;2.30;;;;;;;7.87;100.00;96216.69;5038778;28;20228;-69
2021/10/29 01:09:12;;;;;;;4.20;3.13;;;;;;;7.56;100.00;96218.25;5039439;28;20212;-69
2021/10/29 01:11:39;;;;;;;5.90;2.77;;;;;;;7.72;100.00;96218.28;5039255;28;20201;-69
2021/10/29 01:14:05;;;;;;;8.50;3.57;;;;;;;7.77;100.00;96221.25;5039058;28;20292;-69
2021/10/29 01:16:32;;;;;;;5.20;2.80;;;;;;;7.66;100.00;96211.06;5038792;28;20227;-69
2021/10/29 01:18:58;;;;;;;5.33;2.90;;;;;;;7.57;100.00;96212.00;5039119;28;20211;-69
2021/10/29 01:21:26;;;;;;;4.33;3.23;;;;;;;8.07;100.00;96203.09;5039041;28;20205;-69
2021/10/29 01:23:53;;;;;;;3.83;1.77;;;;;;;7.83;100.00;96204.03;5038957;28;20205;-69
2021/10/29 01:26:19;;;;;;;4.20;2.70;;;;;;;7.74;100.00;96200.59;5037806;28;20221;-69
2021/10/29 01:28:47;;;;;;;3.63;3.00;;;;;;;7.92;100.00;96201.28;5039043;28;20658;-69
2021/10/29 01:31:15;;;;;;;3.97;2.00;;;;;;;7.87;100.00;96195.69;5039142;28;20205;-69
2021/10/29 01:33:42;;;;;;;4.50;2.97;;;;;;;7.88;100.00;96197.34;5039013;28;20220;-69
2021/10/29 01:36:09;;;;;;;7.77;3.40;;;;;;;7.84;100.00;96196.03;5037586;28;20700;-69
2021/10/29 01:38:39;;;;;;;4.73;3.17;;;;;;;7.87;100.00;96191.25;5038850;28;20231;-69
2021/10/29 01:41:07;;;;;;;5.00;2.53;;;;;;;7.55;100.00;96187.75;5039211;28;20201;-69
2021/10/29 01:43:38;;;;;;;4.93;4.30;;;;;;;7.80;100.00;96193.88;5038789;28;20225;-69
2021/10/29 01:46:05;;;;;;;3.37;2.90;;;;;;;7.60;100.00;96189.88;5038099;28;20212;-69
2021/10/29 01:48:32;;;;;;;3.70;2.40;;;;;;;7.58;100.00;96184.00;5038819;28;20806;-69
2021/10/29 01:50:58;;;;;;;2.93;2.13;;;;;;;7.43;100.00;96178.56;5038382;28;20209;-69
2021/10/29 01:53:25;;;;;;;3.37;2.13;;;;;;;7.61;100.00;96171.38;5038922;28;20592;-69
2021/10/29 01:55:53;;;;;;;5.10;3.40;;;;;;;7.84;100.00;96164.53;5038085;28;20209;-69
2021/10/29 01:58:20;;;;;;;3.10;2.37;;;;;;;7.47;100.00;96164.13;5035481;28;20205;-69
2021/10/29 02:00:46;;;;;;;3.13;2.23;;;;;;;7.89;100.00;96151.72;5038376;28;20214;-69
2021/10/29 02:03:13;;;;;;;3.70;2.23;;;;;;;7.43;100.00;96157.59;5039504;28;20223;-69
2021/10/29 02:05:41;;;;;;;2.87;1.97;;;;;;;7.87;99.45;96166.84;5037679;28;20194;-69
2021/10/29 02:08:08;;;;;;;2.27;2.10;;;;;;;7.87;98.92;96159.78;5037420;28;20236;-69
2021/10/29 02:10:35;;;;;;;3.10;1.90;;;;;;;7.77;97.65;96167.97;5038651;28;20300;-69
2021/10/29 02:13:03;;;;;;;3.43;2.57;;;;;;;7.95;97.31;96167.66;5038549;28;20227;-69
2021/10/29 02:15:30;;;;;;;2.27;1.80;;;;;;;7.77;98.00;96167.97;5037440;28;20198;-69
2021/10/29 02:17:57;;;;;;;9.87;2.07;;;;;;;7.74;98.08;96171.75;5037910;28;20225;-69
2021/10/29 02:20:23;;;;;;;2.90;2.13;;;;;;;7.61;98.25;96174.00;5038193;28;20212;-69
2021/10/29 02:22:50;;;;;;;2.93;2.40;;;;;;;7.59;98.07;96160.22;5037740;28;20198;-69
2021/10/29 02:25:16;;;;;;;5.40;1.70;;;;;;;7.56;98.78;96163.19;5037819;28;20201;-69
2021/10/29 02:27:43;;;;;;;5.07;2.33;;;;;;;7.69;99.49;96171.41;5036959;28;20800;-69
2021/10/29 02:30:11;;;;;;;2.17;1.97;;;;;;;7.88;99.62;96166.66;5037581;28;20209;-69
2021/10/29 02:32:38;;;;;;;3.20;1.77;;;;;;;7.74;99.07;96161.25;5037654;28;20701;-69
2021/10/29 02:35:05;;;;;;;1.73;1.63;;;;;;;7.79;99.59;96172.06;5037167;28;20197;-69
2021/10/29 02:37:31;;;;;;;3.40;1.53;;;;;;;7.88;97.44;96171.09;5036379;28;20221;-69
2021/10/29 02:39:58;;;;;;;4.17;1.93;;;;;;;7.76;98.98;96167.13;5037532;28;20197;-69
2021/10/29 02:42:24;;;;;;;2.97;2.03;;;;;;;7.72;98.47;96162.38;5037788;28;20201;-69
2021/10/29 02:44:51;;;;;;;1.90;1.50;;;;;;;7.86;99.08;96159.13;5037623;28;20201;-69
2021/10/29 02:47:18;;;;;;;4.57;2.73;;;;;;;8.22;97.54;96153.44;5036651;28;20224;-69
2021/10/29 02:49:45;;;;;;;2.47;1.73;;;;;;;7.84;97.18;96148.81;5037189;28;20211;-69
2021/10/29 02:52:12;;;;;;;2.43;1.73;;;;;;;7.48;98.86;96151.84;5037340;28;20288;-69
2021/10/29 02:54:38;;;;;;;3.03;2.27;;;;;;;7.87;98.53;96154.53;5035098;28;20205;-69
2021/10/29 02:57:05;;;;;;;2.57;1.60;;;;;;;8.00;97.58;96149.63;5034281;28;20225;-69
2021/10/29 02:59:32;;;;;;;2.13;1.77;;;;;;;7.80;96.77;96147.47;5037536;28;20907;-69
2021/10/29 03:01:58;;;;;;;5.90;1.90;;;;;;;7.53;97.83;96147.75;5036841;28;20201;-69
2021/10/29 03:04:27;;;;;;;2.10;1.73;;;;;;;7.61;98.08;96152.19;5037306;28;20204;-69
2021/10/29 03:06:53;;;;;;;2.43;2.23;;;;;;;7.38;97.85;96148.53;5036153;28;20227;-69
2021/10/29 03:09:20;;;;;;;5.13;2.20;;;;;;;7.16;99.24;96146.50;5037068;28;20224;-69
2021/10/29 03:11:47;;;;;;;3.47;2.07;;;;;;;7.14;98.62;96143.22;5037309;28;20205;-69
2021/10/29 03:14:13;;;;;;;4.97;2.37;;;;;;;6.94;99.36;96135.78;5037646;28;20235;-69
2021/10/29 03:16:40;;;;;;;5.50;2.10;;;;;;;6.96;99.56;96147.75;5035978;28;20217;-69
2021/10/29 03:19:07;;;;;;;2.07;1.87;;;;;;;6.97;99.94;96151.19;5036823;28;20202;-69
2021/10/29 03:21:35;;;;;;;8.77;2.13;;;;;;;7.38;99.85;96138.88;5036716;28;20208;-69
2021/10/29 03:24:01;;;;;;;2.90;1.90;;;;;;;7.13;99.17;96140.75;5037250;28;20225;-69
2021/10/29 03:26:28;;;;;;;1.83;1.30;;;;;;;7.27;99.05;96139.16;5036154;28;20224;-69
2021/10/29 03:28:54;;;;;;;3.73;2.07;;;;;;;7.06;99.02;96139.75;5036902;28;20212;-69
2021/10/29 03:31:21;;;;;;;1.53;1.40;;;;;;;7.08;99.28;96129.94;5036881;28;20269;-69
2021/10/29 03:33:47;;;;;;;1.63;1.33;;;;;;;7.07;98.85;96126.50;5036812;28;20592;-69
2021/10/29 03:36:14;;;;;;;4.10;2.53;;;;;;;7.03;99.07;96130.41;5035290;28;20235;-69
2021/10/29 03:38:47;;;;;;;1.33;1.27;;;;;;;7.29;99.00;96129.34;5037062;28;20205;-69
2021/10/29 03:41:17;;;;;;;1.70;1.47;;;;;;;7.05;98.28;96127.63;5036804;28;20236;-69
2021/10/29 03:43:48;;;;;;;2.40;2.07;;;;;;;7.14;98.41;96124.06;5036658;28;20205;-69
2021/10/29 03:46:16;;;;;;;2.77;2.13;;;;;;;7.29;97.49;96116.25;5035867;28;20221;-69
2021/10/29 03:48:52;;;;;;;3.03;1.70;;;;;;;7.36;97.90;96112.00;5036587;28;20205;-69
2021/10/29 03:51:21;;;;;;;2.70;1.90;;;;;;;7.40;97.98;96115.94;5036092;28;20209;-69
2021/10/29 03:53:53;;;;;;;2.70;1.90;;;;;;;7.71;97.53;96111.72;5036853;28;20225;-69
2021/10/29 03:56:20;;;;;;;3.03;1.93;;;;;;;7.44;97.58;96114.63;5036065;28;20256;-69
2021/10/29 03:58:50;;;;;;;1.33;1.17;;;;;;;7.29;97.94;96116.25;5034300;28;20216;-69
2021/10/29 04:01:17;;;;;;;3.10;1.70;;;;;;;6.88;98.83;96124.13;5036273;28;20704;-69
2021/10/29 04:03:43;;;;;;;1.03;0.97;;;;;;;6.72;99.14;96133.69;5036743;28;20239;-69
2021/10/29 04:06:10;;;;;;;1.80;1.70;;;;;;;6.80;99.46;96133.75;5035837;28;20228;-69
2021/10/29 04:08:37;;;;;;;2.70;1.97;;;;;;;6.78;99.16;96141.78;5036897;28;20204;-69
2021/10/29 04:11:06;;;;;;;2.47;2.00;;;;;;;7.26;98.92;96133.28;5036883;28;20201;-69
2021/10/29 04:13:36;;;;;;;1.90;1.47;;;;;;;7.03;98.70;96134.84;5036062;28;20228;-69
2021/10/29 04:16:03;;;;;;;4.53;2.40;;;;;;;7.13;97.73;96135.50;5036123;28;20298;-69
2021/10/29 04:18:30;;;;;;;1.37;1.27;;;;;;;7.02;97.25;96133.19;5036922;28;20205;-69
2021/10/29 04:20:57;;;;;;;2.33;2.13;;;;;;;6.94;97.84;96133.16;5036479;28;20211;-69
2021/10/29 04:23:23;;;;;;;4.07;1.70;;;;;;;7.17;96.65;96129.00;5035844;28;20206;-69
2021/10/29 04:25:50;;;;;;;3.47;1.90;;;;;;;7.37;96.69;96124.13;5036785;28;20201;-69
2021/10/29 04:28:18;;;;;;;3.90;1.87;;;;;;;7.31;96.84;96124.75;5035822;28;20211;-69
2021/10/29 04:30:45;;;;;;;1.80;1.63;;;;;;;7.19;97.14;96119.16;5036038;28;20208;-69
2021/10/29 04:33:13;;;;;;;2.93;1.40;;;;;;;7.08;97.83;96114.22;5036069;28;20278;-69
2021/10/29 04:35:42;;;;;;;1.63;1.50;;;;;;;7.38;98.07;96119.69;5036103;28;20205;-69
2021/10/29 04:38:09;;;;;;;3.50;1.70;;;;;;;7.33;96.85;96119.34;5035977;28;20221;-69
2021/10/29 04:40:37;;;;;;;3.80;1.80;;;;;;;7.18;97.06;96120.13;5035895;28;20227;-69
2021/10/29 04:43:04;;;;;;;2.27;1.57;;;;;;;7.26;97.36;96107.06;5036165;28;20205;-69
2021/10/29 04:45:33;;;;;;;4.73;1.70;;;;;;;7.41;97.22;96109.72;5035832;28;20208;-69
2021/10/29 04:48:00;;;;;;;2.40;1.47;;;;;;;7.22;97.29;96110.97;5035888;28;20221;-69
2021/10/29 04:50:27;;;;;;;5.10;2.23;;;;;;;7.20;97.41;96105.09;5035967;28;20665;-69
2021/10/29 04:52:53;;;;;;;4.93;2.47;;;;;;;7.22;97.07;96109.19;5036104;28;20200;-69
2021/10/29 04:55:20;;;;;;;2.73;1.93;;;;;;;7.42;96.64;96113.16;5035778;28;20201;-69
2021/10/29 04:57:46;;;;;;;1.33;1.23;;;;;;;7.35;96.46;96102.50;5034198;28;20217;-69
2021/10/29 05:00:14;;;;;;;3.40;2.40;;;;;;;7.39;96.20;96106.44;5039576;28;20205;-69
2021/10/29 05:02:42;;;;;;;3.67;1.40;;;;;;;7.51;96.31;96110.41;5038992;28;20680;-69
2021/10/29 05:05:10;;;;;;;1.40;1.30;;;;;;;7.18;96.44;96113.13;5039229;28;20700;-69
2021/10/29 05:07:37;;;;;;;1.13;1.03;;;;;;;7.12;95.70;96108.50;5038994;28;20263;-69
2021/10/29 05:10:05;;;;;;;3.17;1.63;;;;;;;7.15;96.53;96113.41;5039141;28;20204;-69
2021/10/29 05:12:31;;;;;;;2.80;1.70;;;;;;;6.99;95.88;96113.38;5039447;28;20205;-69
2021/10/29 05:14:58;;;;;;;1.03;0.93;;;;;;;7.05;95.76;96107.50;5039399;28;20227;-69
2021/10/29 05:17:25;;;;;;;3.23;1.30;;;;;;;7.20;95.70;96103.28;5038709;28;20221;-69
2021/10/29 05:19:52;;;;;;;14.50;1.63;;;;;;;7.35;95.21;96093.81;5039028;28;20207;-69
2021/10/29 05:22:19;;;;;;;2.33;1.60;;;;;;;7.19;95.08;96096.38;5038972;28;20212;-69
2021/10/29 05:24:45;;;;;;;2.10;1.90;;;;;;;7.01;96.56;96092.25;5039597;28;20204;-69
2021/10/29 05:27:12;;;;;;;1.30;1.20;;;;;;;7.08;95.62;96085.41;5038535;28;20232;-69
2021/10/29 05:29:39;;;;;;;3.83;2.70;;;;;;;7.10;95.59;96084.25;5039024;28;20209;-69
2021/10/29 05:32:07;;;;;;;2.13;1.30;;;;;;;6.98;97.23;96084.72;5039229;28;20201;-69
2021/10/29 05:34:33;;;;;;;3.60;1.73;;;;;;;7.06;96.73;96079.50;5038867;28;20217;-69
2021/10/29 05:37:01;;;;;;;2.27;1.43;;;;;;;7.20;95.68;96084.13;5037509;28;20221;-69
2021/10/29 05:39:29;;;;;;;2.77;2.17;;;;;;;6.96;95.52;96089.28;5039083;28;20203;-69
2021/10/29 05:41:56;;;;;;;1.47;1.07;;;;;;;7.04;95.17;96090.13;5038354;28;20216;-69
2021/10/29 05:44:23;;;;;;;2.90;1.23;;;;;;;7.10;95.10;96089.47;5037725;28;20208;-69
2021/10/29 05:46:50;;;;;;;3.70;2.10;;;;;;;7.13;95.30;96083.09;5038830;28;20316;-69
2021/10/29 05:49:18;;;;;;;3.80;2.07;;;;;;;7.14;95.59;96090.84;5038289;28;20220;-69
2021/10/29 05:51:47;;;;;;;1.80;1.57;;;;;;;6.99;96.15;96089.00;5038498;28;20292;-70
2021/10/29 05:54:38;;;;;;;1.20;1.10;;;;;;;7.25;96.30;96097.56;5038615;28;20236;-70
2021/10/29 05:57:06;;;;;;;3.83;1.70;;;;;;;7.17;95.46;96094.94;5035167;28;20314;-70
2021/10/29 05:59:35;;;;;;;1.87;1.30;;;;;;;6.93;96.32;96094.84;5038442;28;20204;-70
2021/10/29 06:02:03;;;;;;;1.70;1.27;;;;;;;7.21;94.61;96096.25;5038464;28;20263;-70
2021/10/29 06:04:30;;;;;;;1.53;0.93;;;;;;;7.19;93.92;96095.56;5038402;28;20694;-70
2021/10/29 06:06:57;;;;;;;1.93;1.63;;;;;;;7.08;93.69;96090.66;5037645;28;20217;-70
2021/10/29 06:09:25;;;;;;;2.33;1.43;;;;;;;7.14;94.25;96092.63;5038185;28;20206;-70
2021/10/29 06:11:52;;;;;;;1.10;1.03;;;;;;;7.06;94.54;96093.41;5038914;28;20280;-70
2021/10/29 06:14:19;;;;;;;3.03;1.50;;;;;;;6.66;95.22;96090.63;5037901;28;20696;-70
2021/10/29 06:16:46;;;;;;;1.90;1.50;;;;;;;6.71;95.33;96093.59;5036799;28;21005;-70
2021/10/29 06:19:12;;;;;;;1.77;1.67;;;;;;;6.64;95.71;96102.25;5038757;28;20215;-70
2021/10/29 06:21:42;;;;;;;2.10;1.60;;;;;;;6.70;95.96;96096.38;5037686;28;20197;-70
2021/10/29 06:24:11;;;;;;;9.03;2.07;;;;;;;6.87;96.15;96100.72;5037547;28;20576;-70
2021/10/29 06:26:44;;;;;;;4.80;2.17;;;;;;;7.14;96.54;96098.69;5037098;28;20616;-70
2021/10/29 06:29:10;;;;;;;3.27;1.47;;;;;;;6.91;96.65;96102.88;5037514;28;20324;-70
2021/10/29 06:31:37;;;;;;;1.43;1.20;;;;;;;7.01;96.86;96100.09;5038214;28;20205;-70
2021/10/29 06:34:05;;;;;;;3.50;1.57;;;;;;;7.08;96.11;96103.75;5037748;28;20235;-70
2021/10/29 06:36:31;;;;;;;2.50;1.47;;;;;;;6.97;96.16;96099.59;5037055;28;20275;-70
2021/10/29 06:38:59;;;;;;;1.30;1.07;;;;;;;6.76;96.91;96095.78;5038010;28;20201;-70
2021/10/29 06:41:25;;;;;;;1.53;1.30;;;;;;;7.00;96.95;96098.47;5037065;28;20232;-70
2021/10/29 06:44:05;;;;;;;3.50;1.63;;;;;;;7.25;97.78;96087.91;5037916;28;20197;-70
2021/10/29 06:46:37;;;;;;;3.03;1.73;;;;;;;6.82;97.14;96101.19;5037161;28;20228;-70
2021/10/29 06:49:13;;;;;;;1.33;1.00;;;;;;;6.91;97.20;96102.03;5037127;28;20197;-70
2021/10/29 07:00:05;;;;;;;3.60;2.30;;;;;;;6.43;98.46;96122.75;5037130;28;20254;-70
2021/10/29 07:41:00;;;;;;;6.87;1.90;;;;;;;6.83;96.61;96143.91;5003359;28;20201;-70
2021/10/29 07:43:29;;;;;;;1.70;1.60;;;;;;;7.06;95.75;96130.09;5036168;28;20210;-70
2021/10/29 07:45:56;;;;;;;2.77;1.17;;;;;;;7.07;95.36;96138.78;5035591;28;20197;-70
2021/10/29 07:48:24;;;;;;;3.93;2.80;;;;;;;7.32;95.60;96130.84;5036935;28;20208;-70
2021/10/29 07:50:50;;;;;;;5.20;1.73;;;;;;;7.16;94.81;96132.59;5036292;28;20236;-70
2021/10/29 07:53:17;;;;;;;3.53;2.87;;;;;;;7.00;96.15;96137.75;5035665;28;20209;-70
2021/10/29 07:55:44;;;;;;;2.20;1.60;;;;;;;7.19;95.40;96140.94;5035754;28;20228;-70
2021/10/29 07:58:10;;;;;;;7.00;1.30;;;;;;;6.97;95.17;96140.69;5033889;28;20227;-70
2021/10/29 08:00:37;;;;;;;4.80;2.67;;;;;;;6.79;95.48;96137.34;5036269;28;20568;-70
2021/10/29 08:03:06;;;;;;;1.57;1.43;;;;;;;6.85;95.14;96127.06;5037917;28;20216;-70
2021/10/29 08:05:34;;;;;;;2.20;2.00;;;;;;;7.09;95.06;96132.41;5035602;28;20201;-70
2021/10/29 08:08:01;;;;;;;1.57;1.43;;;;;;;6.99;95.65;96136.94;5036387;28;20224;-70
2021/10/29 08:10:28;;;;;;;3.63;2.47;;;;;;;6.89;96.74;96133.63;5036446;28;20197;-70
2021/10/29 08:12:55;;;;;;;1.87;1.70;;;;;;;6.71;96.37;96137.31;5036493;28;20207;-70
2021/10/29 08:15:21;;;;;;;1.27;1.17;;;;;;;6.37;98.31;96146.91;5036056;28;21388;-70
2021/10/29 08:17:48;;;;;;;2.20;1.57;;;;;;;6.44;98.11;96142.72;5035823;28;20227;-70
2021/10/29 08:20:16;;;;;;;2.23;2.10;;;;;;;6.99;95.88;96139.56;5036050;28;20348;-70
2021/10/29 08:22:44;;;;;;;7.40;2.20;;;;;;;7.36;96.09;96132.16;5035650;28;20665;-70
2021/10/29 08:25:13;;;;;;;3.00;2.17;;;;;;;7.25;95.38;96129.81;5036482;28;20193;-70
2021/10/29 08:27:40;;;;;;;1.47;1.23;;;;;;;7.02;96.08;96131.38;5035391;28;20221;-70
2021/10/29 08:30:09;;;;;;;3.43;1.90;;;;;;;7.12;95.37;96118.97;5035821;28;21120;-70
2021/10/29 08:32:37;;;;;;;1.37;1.00;;;;;;;6.91;95.05;96126.44;5037594;28;20204;-70
2021/10/29 08:35:04;;;;;;;1.80;1.63;;;;;;;7.13;95.47;96120.63;5039886;28;20217;-70
2021/10/29 08:37:31;;;;;;;1.20;1.00;;;;;;;7.17;93.29;96121.94;5038822;28;20725;-70
2021/10/29 08:40:00;;;;;;;1.67;1.47;;;;;;;7.44;93.82;96124.31;5040026;28;20217;-70
2021/10/29 08:42:27;;;;;;;1.50;1.40;;;;;;;7.48;94.21;96123.00;5039239;28;20216;-70
2021/10/29 08:44:54;;;;;;;3.77;2.43;;;;;;;7.53;93.51;96123.34;5039396;28;20782;-69
2021/10/29 08:47:23;;;;;;;1.80;1.70;;;;;;;7.73;93.27;96122.06;5038279;28;20232;-71
2021/10/29 08:49:50;;;;;;;2.83;2.23;;;;;;;7.58;91.88;96119.25;5039161;28;20213;-71
2021/10/29 08:52:21;;;;;;;2.63;1.93;;;;;;;7.71;93.04;96127.47;5039105;28;20201;-69
2021/10/29 08:54:48;;;;;;;2.17;1.93;;;;;;;7.81;93.34;96120.25;5039123;28;20221;-69
2021/10/29 08:57:17;;;;;;;1.87;1.77;;;;;;;7.77;91.24;96115.53;5035688;28;20228;-72
2021/10/29 08:59:47;;;;;;;1.67;1.57;;;;;;;7.59;92.07;96127.94;5039358;28;20197;-71
2021/10/29 09:02:17;;;;;;;2.17;1.90;;;;;;;7.28;92.42;96124.28;5039225;28;20212;-71
2021/10/29 09:04:48;;;;;;;4.33;2.33;;;;;;;7.65;92.74;96125.50;5039873;28;21105;-71
2021/10/29 09:32:22;;;;;;;9.43;4.33;;;;;;;8.33;92.07;96109.28;5038833;28;20339;-69
2021/10/29 09:34:57;;;;;;;6.20;3.87;;;;;;;8.50;91.13;96103.84;5038683;28;20232;-69
2021/10/29 09:37:24;;;;;;;8.87;4.97;;;;;;;8.24;91.60;96109.47;5038085;28;20286;-69
2021/10/29 09:39:53;;;;;;;10.87;3.67;;;;;;;8.35;92.27;96111.75;5038850;28;20193;-69
2021/10/29 09:42:22;;;;;;;17.73;6.07;;;;;;;8.33;90.96;96103.22;5038918;28;20300;-69
2021/10/29 09:44:53;;;;;;;14.77;5.17;;;;;;;8.31;90.95;96115.69;5038371;28;20197;-69
2021/10/29 09:47:22;;;;;;;5.23;3.47;;;;;;;8.12;90.63;96108.97;5038239;28;20287;-69
2021/10/29 09:50:00;;;;;;;5.23;2.63;;;;;;;8.14;91.02;96100.94;5038932;28;20683;-69
2021/10/29 09:55:19;;;;;;;3.67;1.90;;;;;;;7.91;91.82;96095.50;5037927;28;20232;-69
2021/10/29 09:57:46;;;;;;;3.97;2.03;;;;;;;7.98;91.57;96090.41;5034643;28;20228;-71
2021/10/29 10:00:17;;;;;;;2.47;1.80;;;;;;;8.21;91.39;96105.38;5038395;28;20271;-71
2021/10/29 10:02:45;;;;;;;4.47;2.17;;;;;;;8.50;91.76;96089.88;5038439;28;20588;-71
2021/10/29 10:05:13;;;;;;;3.33;2.33;;;;;;;8.38;90.91;96103.56;5038363;28;20771;-69
2021/10/29 10:07:42;;;;;;;2.73;2.07;;;;;;;8.00;91.48;96098.94;5037461;28;20228;-71
2021/10/29 10:10:11;;;;;;;2.83;2.53;;;;;;;8.69;89.74;96095.59;5038200;28;20256;-71
2021/10/29 10:12:40;;;;;;;3.87;2.90;;;;;;;8.48;92.22;96095.31;5038099;28;20201;-69
2021/10/29 10:15:09;;;;;;;2.47;1.93;;;;;;;8.65;91.85;96089.00;5038319;28;20240;-69
2021/10/29 10:17:37;;;;;;;3.03;2.13;;;;;;;8.58;90.84;96084.63;5037137;28;20225;-69
2021/10/29 10:20:06;;;;;;;4.40;2.70;;;;;;;8.63;90.95;96085.75;5038116;28;20197;-69
2021/10/29 10:22:36;;;;;;;7.50;3.00;;;;;;;8.83;91.89;96081.72;5038519;28;20205;-69
2021/10/29 10:25:10;;;;;;;3.53;2.47;;;;;;;8.44;91.88;96074.81;5038034;28;20978;-72
2021/10/29 10:28:19;;;;;;;5.67;2.70;;;;;;;8.41;91.27;96082.19;5036592;28;20721;-71
2021/10/29 10:30:59;;;;;;;5.27;3.13;;;;;;;8.60;91.28;96080.00;5038395;28;20777;-71
2021/10/29 10:42:33;;;;;;;2.40;2.00;;;;;;;8.83;91.22;96075.66;5037965;28;20271;-71
2021/10/29 10:45:05;;;;;;;5.00;2.90;;;;;;;8.48;93.09;96070.03;5037854;28;20253;-69
2021/10/29 10:47:35;;;;;;;11.37;3.27;;;;;;;8.85;90.98;96071.06;5037323;28;20221;-69
2021/10/29 10:50:11;;;;;;;7.23;2.13;;;;;;;8.87;90.43;96067.28;5037721;28;20236;-69
2021/10/29 10:53:13;;;;;;;4.60;2.23;;;;;;;9.14;89.88;96066.84;5037885;28;20666;-69
2021/10/29 10:55:49;;;;;;;4.50;3.20;;;;;;;9.08;90.52;96064.88;5023611;28;20314;-69
2021/10/29 10:58:24;;;;;;;5.23;2.80;;;;;;;8.79;91.09;96064.66;5034091;28;20339;-69
2021/10/29 11:00:57;;;;;;;6.73;3.00;;;;;;;8.75;90.74;96060.75;5037535;28;20262;-69
2021/10/29 11:06:58;;;;;;;6.40;2.97;;;;;;;9.23;90.41;96050.81;5053220;28;20582;-70
2021/10/29 11:09:55;;;;;;;4.80;2.77;;;;;;;9.46;90.15;96040.34;5054004;28;20204;-70
2021/10/29 11:12:22;;;;;;;9.37;2.93;;;;;;;9.08;91.00;96041.22;5053839;28;20204;-70
2021/10/29 11:15:08;;;;;;;5.63;3.53;;;;;;;9.47;90.81;96036.69;5053741;28;20196;-70
2021/10/29 11:17:46;;;;;;;5.77;3.30;;;;;;;9.19;90.48;96038.22;5052464;28;20232;-70
2021/10/29 11:20:42;;;;;;;8.60;2.87;;;;;;;8.94;91.00;96031.44;5052799;28;20732;-70
2021/10/29 11:23:12;;;;;;;2.37;2.17;;;;;;;8.50;93.10;96032.09;5053879;28;20295;-70
2021/10/29 11:25:56;;;;;;;5.13;1.83;;;;;;;8.69;92.67;96027.31;5052884;28;20751;-70
2021/10/29 11:28:26;;;;;;;3.27;2.20;;;;;;;8.39;93.85;96024.63;5052978;28;20208;-70
2021/10/29 11:30:55;;;;;;;11.43;2.80;;;;;;;8.29;95.22;96033.69;5053558;28;20296;-70
2021/10/29 11:33:21;;;;;;;10.93;2.60;;;;;;;8.39;94.21;96034.28;5052239;28;20212;-70
2021/10/29 11:36:01;;;;;;;4.60;2.93;;;;;;;9.04;92.24;96026.78;5052778;28;20199;-70
2021/10/29 11:38:31;;;;;;;6.30;3.90;;;;;;;9.31;91.93;96013.16;5052664;28;20200;-70
2021/10/29 11:40:59;;;;;;;5.77;3.07;;;;;;;9.08;91.61;96025.47;5053244;28;20219;-70
2021/10/29 11:43:28;;;;;;;8.67;2.93;;;;;;;9.31;91.47;96021.84;5053722;28;20550;-70
2021/10/29 11:45:55;;;;;;;4.07;2.37;;;;;;;9.02;90.84;96007.75;5052310;28;20216;-70
2021/10/29 11:48:22;;;;;;;7.73;4.10;;;;;;;9.08;91.13;96014.94;5052976;28;20641;-70
2021/10/29 11:51:03;;;;;;;6.67;4.17;;;;;;;9.48;90.96;96018.13;5053056;28;20201;-70
2021/10/29 11:53:32;;;;;;;5.37;3.33;;;;;;;9.31;91.79;96007.91;5053312;28;20840;-70
2021/10/29 11:56:02;;;;;;;4.97;2.53;;;;;;;8.88;91.98;96007.66;5053180;28;20200;-70
2021/10/29 11:58:39;;;;;;;11.63;3.87;;;;;;;8.63;93.40;95999.09;5050135;28;20294;-69
2021/10/29 12:01:27;;;;;;;3.37;2.47;;;;;;;8.36;93.77;96005.75;5052912;28;20200;-70
2021/10/29 12:09:28;;;;;;;7.57;4.10;;;;;;;9.50;92.02;95997.72;5052344;28;20680;-70
2021/10/29 12:11:56;;;;;;;9.07;4.20;;;;;;;9.30;92.56;96006.25;5052495;28;20249;-70
2021/10/29 12:14:31;;;;;;;7.93;4.23;;;;;;;9.62;91.80;95995.50;5052815;28;20203;-70
2021/10/29 12:17:06;;;;;;;10.37;4.20;;;;;;;9.68;91.57;95985.09;5042279;28;20587;-70
2021/10/29 12:19:35;;;;;;;13.07;4.57;;;;;;;9.34;90.83;95986.50;5039264;28;20218;-70
2021/10/29 12:22:09;;;;;;;10.33;3.70;;;;;;;9.13;91.60;95978.44;5039354;28;20197;-70
2021/10/29 12:24:44;;;;;;;7.63;5.00;;;;;;;9.41;91.47;95969.84;5039107;28;20278;-70
2021/10/29 12:27:22;;;;;;;8.33;4.07;;;;;;;9.35;92.68;95967.13;5038226;28;20247;-70
2021/10/29 12:30:14;;;;;;;15.47;4.30;;;;;;;9.72;91.62;95960.88;5039563;28;20201;-70
2021/10/29 12:33:05;;;;;;;13.33;4.57;;;;;;;9.57;91.69;95955.75;5039243;28;20323;-70
2021/10/29 13:01:27;;;;;;;6.97;4.03;;;;;;;8.98;94.21;95946.00;5038287;28;20290;-70
2021/10/29 13:03:57;;;;;;;8.00;4.77;;;;;;;8.91;94.40;95952.13;5038674;28;20201;-70
2021/10/29 13:06:30;;;;;;;6.23;3.53;;;;;;;9.05;93.29;95941.72;5037498;28;20402;-70
2021/10/29 13:09:15;;;;;;;13.47;3.60;;;;;;;9.06;92.90;95935.44;5038706;28;20201;-70
2021/10/29 13:11:48;;;;;;;8.57;3.73;;;;;;;9.02;93.23;95934.16;5038334;28;20690;-69
2021/10/29 13:14:21;;;;;;;7.73;4.40;;;;;;;9.16;93.64;95936.03;5038077;28;20249;-71
2021/10/29 13:16:49;;;;;;;8.90;3.70;;;;;;;8.90;92.11;95932.13;5037675;28;20271;-69
2021/10/29 13:19:29;;;;;;;6.37;2.90;;;;;;;9.15;92.14;95929.13;5038160;28;20201;-69
2021/10/29 13:52:11;;;;;;;9.17;5.27;;;;;;;9.45;90.74;95910.66;5037812;28;20250;-69
2021/10/29 13:54:45;;;;;;;7.77;5.40;;;;;;;9.29;90.60;95921.31;5037257;28;20217;-69
2021/10/29 13:57:32;;;;;;;15.77;5.10;;;;;;;9.62;89.81;95906.88;5034631;28;20649;-69
2021/10/29 14:17:00;;;;;;;8.13;4.93;;;;;;;9.61;89.88;95914.94;5035727;28;20300;-69
2021/10/29 14:30:27;;;;;;;9.20;5.00;;;;;;;9.49;89.82;95905.84;5035850;28;20227;-69
2021/10/29 14:32:59;;;;;;;15.70;6.30;;;;;;;9.40;90.61;95906.94;5035990;28;20933;-69
2021/10/29 14:35:31;;;;;;;10.37;4.97;;;;;;;9.51;90.98;95909.94;5036603;28;21033;-68
2021/10/29 14:38:04;;;;;;;9.67;5.00;;;;;;;9.60;90.33;95903.59;5036889;28;20283;-69
2021/10/29 14:40:34;;;;;;;9.83;5.00;;;;;;;9.63;90.88;95913.75;5036413;28;20219;-69
2021/10/29 14:43:05;;;;;;;7.97;4.93;;;;;;;9.78;89.55;95902.25;5036708;28;20205;-68
2021/10/29 14:45:35;;;;;;;6.27;3.97;;;;;;;9.63;89.42;95902.44;5036459;28;20224;-69